sensor_id;sensor_type;location;lat;lon;timestamp;temperature;humidity
16134;DHT22;8172;45.018;5.972;2022-12-16T00:04:07;3.50;86.10
16134;DHT22;8172;45.018;5.972;2022-12-16T00:09:15;3.50;86.10
16134;DHT22;8172;45.018;5.972;2022-12-16T00:14:22;3.50;85.80
16134;DHT22;8172;45.018;5.972;2022-12-16T00:19:29;3.50;85.80
16134;DHT22;8172;45.018;5.972;2022-12-16T00:24:36;3.50;85.80
16134;DHT22;8172;45.018;5.972;2022-12-16T00:29:43;3.50;85.70
16134;DHT22;8172;45.018;5.972;2022-12-16T00:34:50;3.50;85.70
16134;DHT22;8172;45.018;5.972;2022-12-16T00:39:59;3.50;85.60
16134;DHT22;8172;45.018;5.972;2022-12-16T00:45:07;3.40;85.30
16134;DHT22;8172;45.018;5.972;2022-12-16T00:50:15;3.30;85.50
16134;DHT22;8172;45.018;5.972;2022-12-16T00:55:23;3.30;85.50
16134;DHT22;8172;45.018;5.972;2022-12-16T01:00:30;3.30;85.50
16134;DHT22;8172;45.018;5.972;2022-12-16T01:05:38;3.30;85.60
16134;DHT22;8172;45.018;5.972;2022-12-16T01:10:52;3.30;85.60
16134;DHT22;8172;45.018;5.972;2022-12-16T01:15:59;3.30;85.60
16134;DHT22;8172;45.018;5.972;2022-12-16T01:21:09;3.30;85.60
16134;DHT22;8172;45.018;5.972;2022-12-16T01:26:17;3.30;85.50
16134;DHT22;8172;45.018;5.972;2022-12-16T01:31:25;3.30;85.50
16134;DHT22;8172;45.018;5.972;2022-12-16T01:36:33;3.20;85.60
16134;DHT22;8172;45.018;5.972;2022-12-16T01:41:41;3.20;85.70
16134;DHT22;8172;45.018;5.972;2022-12-16T01:52:03;3.10;86.00
16134;DHT22;8172;45.018;5.972;2022-12-16T01:57:16;3.10;86.10
16134;DHT22;8172;45.018;5.972;2022-12-16T02:02:22;3.00;86.20
16134;DHT22;8172;45.018;5.972;2022-12-16T02:07:30;2.90;86.40
16134;DHT22;8172;45.018;5.972;2022-12-16T02:12:43;2.90;86.50
16134;DHT22;8172;45.018;5.972;2022-12-16T02:17:54;2.80;86.60
16134;DHT22;8172;45.018;5.972;2022-12-16T02:38:31;2.60;87.20
16134;DHT22;8172;45.018;5.972;2022-12-16T02:43:46;2.60;87.30
16134;DHT22;8172;45.018;5.972;2022-12-16T02:48:49;2.60;87.30
16134;DHT22;8172;45.018;5.972;2022-12-16T02:53:56;2.50;87.30
16134;DHT22;8172;45.018;5.972;2022-12-16T03:04:25;2.50;87.30
16134;DHT22;8172;45.018;5.972;2022-12-16T03:09:28;2.60;87.30
16134;DHT22;8172;45.018;5.972;2022-12-16T03:14:37;2.60;87.30
16134;DHT22;8172;45.018;5.972;2022-12-16T03:19:48;2.60;87.20
16134;DHT22;8172;45.018;5.972;2022-12-16T03:24:58;2.60;87.30
16134;DHT22;8172;45.018;5.972;2022-12-16T03:30:07;2.60;87.20
16134;DHT22;8172;45.018;5.972;2022-12-16T03:35:20;2.60;87.20
16134;DHT22;8172;45.018;5.972;2022-12-16T03:40:26;2.50;87.20
16134;DHT22;8172;45.018;5.972;2022-12-16T03:45:36;2.60;87.20
16134;DHT22;8172;45.018;5.972;2022-12-16T03:50:45;2.60;87.10
16134;DHT22;8172;45.018;5.972;2022-12-16T03:55:55;2.60;87.00
16134;DHT22;8172;45.018;5.972;2022-12-16T04:01:05;2.50;86.90
16134;DHT22;8172;45.018;5.972;2022-12-16T04:06:16;2.50;86.90
16134;DHT22;8172;45.018;5.972;2022-12-16T04:11:25;2.50;86.80
16134;DHT22;8172;45.018;5.972;2022-12-16T04:16:36;2.50;86.70
16134;DHT22;8172;45.018;5.972;2022-12-16T04:21:45;2.50;86.70
16134;DHT22;8172;45.018;5.972;2022-12-16T04:26:55;2.50;86.70
16134;DHT22;8172;45.018;5.972;2022-12-16T04:32:05;2.50;86.70
16134;DHT22;8172;45.018;5.972;2022-12-16T04:37:12;2.50;86.60
16134;DHT22;8172;45.018;5.972;2022-12-16T04:42:22;2.50;86.50
16134;DHT22;8172;45.018;5.972;2022-12-16T04:47:31;2.50;86.50
16134;DHT22;8172;45.018;5.972;2022-12-16T04:52:41;2.50;86.50
16134;DHT22;8172;45.018;5.972;2022-12-16T04:57:52;2.60;86.50
16134;DHT22;8172;45.018;5.972;2022-12-16T05:03:01;2.60;86.50
16134;DHT22;8172;45.018;5.972;2022-12-16T05:08:10;2.60;86.30
16134;DHT22;8172;45.018;5.972;2022-12-16T05:13:19;2.60;86.20
16134;DHT22;8172;45.018;5.972;2022-12-16T05:18:28;2.70;86.10
16134;DHT22;8172;45.018;5.972;2022-12-16T05:23:37;2.70;86.00
16134;DHT22;8172;45.018;5.972;2022-12-16T05:28:46;2.70;85.90
16134;DHT22;8172;45.018;5.972;2022-12-16T05:33:54;2.70;85.60
16134;DHT22;8172;45.018;5.972;2022-12-16T05:39:05;2.60;85.60
16134;DHT22;8172;45.018;5.972;2022-12-16T05:44:17;2.60;85.60
16134;DHT22;8172;45.018;5.972;2022-12-16T05:49:28;2.60;85.50
16134;DHT22;8172;45.018;5.972;2022-12-16T05:54:38;2.60;85.50
16134;DHT22;8172;45.018;5.972;2022-12-16T05:59:48;2.60;85.50
16134;DHT22;8172;45.018;5.972;2022-12-16T06:04:57;2.60;85.50
16134;DHT22;8172;45.018;5.972;2022-12-16T06:10:06;2.60;85.50
16134;DHT22;8172;45.018;5.972;2022-12-16T06:15:15;2.60;85.50
16134;DHT22;8172;45.018;5.972;2022-12-16T06:20:24;2.60;85.40
16134;DHT22;8172;45.018;5.972;2022-12-16T06:25:32;2.60;85.40
16134;DHT22;8172;45.018;5.972;2022-12-16T06:30:41;2.60;85.40
16134;DHT22;8172;45.018;5.972;2022-12-16T06:35:50;2.60;85.30
16134;DHT22;8172;45.018;5.972;2022-12-16T06:40:58;2.60;85.30
16134;DHT22;8172;45.018;5.972;2022-12-16T06:46:07;2.60;85.20
16134;DHT22;8172;45.018;5.972;2022-12-16T06:51:17;2.60;84.90
16134;DHT22;8172;45.018;5.972;2022-12-16T06:56:26;2.50;85.00
16134;DHT22;8172;45.018;5.972;2022-12-16T07:01:35;2.50;85.10
16134;DHT22;8172;45.018;5.972;2022-12-16T07:06:45;2.50;85.10
16134;DHT22;8172;45.018;5.972;2022-12-16T07:11:54;2.50;85.10
16134;DHT22;8172;45.018;5.972;2022-12-16T07:17:03;2.50;85.10
16134;DHT22;8172;45.018;5.972;2022-12-16T07:22:15;2.50;85.10
16134;DHT22;8172;45.018;5.972;2022-12-16T07:27:24;2.60;85.10
16134;DHT22;8172;45.018;5.972;2022-12-16T07:32:33;2.60;85.10
16134;DHT22;8172;45.018;5.972;2022-12-16T07:37:43;2.50;84.90
16134;DHT22;8172;45.018;5.972;2022-12-16T07:42:53;2.50;84.80
16134;DHT22;8172;45.018;5.972;2022-12-16T07:48:02;2.50;84.80
16134;DHT22;8172;45.018;5.972;2022-12-16T07:53:13;2.50;84.60
16134;DHT22;8172;45.018;5.972;2022-12-16T07:58:32;2.40;84.70
16134;DHT22;8172;45.018;5.972;2022-12-16T08:03:50;2.30;84.70
16134;DHT22;8172;45.018;5.972;2022-12-16T08:08:59;2.30;85.00
16134;DHT22;8172;45.018;5.972;2022-12-16T08:14:10;2.40;85.10
16134;DHT22;8172;45.018;5.972;2022-12-16T08:19:20;2.40;85.20
16134;DHT22;8172;45.018;5.972;2022-12-16T08:24:29;2.40;85.20
16134;DHT22;8172;45.018;5.972;2022-12-16T08:29:38;2.50;85.20
16134;DHT22;8172;45.018;5.972;2022-12-16T08:34:49;2.50;85.00
16134;DHT22;8172;45.018;5.972;2022-12-16T08:39:58;2.50;84.90
16134;DHT22;8172;45.018;5.972;2022-12-16T08:45:09;2.50;84.90
16134;DHT22;8172;45.018;5.972;2022-12-16T08:50:18;2.50;84.90
16134;DHT22;8172;45.018;5.972;2022-12-16T08:55:26;2.40;84.90
16134;DHT22;8172;45.018;5.972;2022-12-16T09:00:35;2.40;85.10
16134;DHT22;8172;45.018;5.972;2022-12-16T09:05:44;2.50;85.10
16134;DHT22;8172;45.018;5.972;2022-12-16T09:10:54;2.50;84.90
16134;DHT22;8172;45.018;5.972;2022-12-16T09:16:03;2.50;84.90
16134;DHT22;8172;45.018;5.972;2022-12-16T09:21:14;2.50;85.10
16134;DHT22;8172;45.018;5.972;2022-12-16T09:26:25;2.60;85.00
16134;DHT22;8172;45.018;5.972;2022-12-16T09:31:34;2.70;84.60
16134;DHT22;8172;45.018;5.972;2022-12-16T09:36:43;2.60;84.50
16134;DHT22;8172;45.018;5.972;2022-12-16T09:52:16;2.60;84.80
16134;DHT22;8172;45.018;5.972;2022-12-16T09:57:28;2.60;85.00
16134;DHT22;8172;45.018;5.972;2022-12-16T10:02:39;2.70;85.00
16134;DHT22;8172;45.018;5.972;2022-12-16T10:09:02;2.80;84.90
16134;DHT22;8172;45.018;5.972;2022-12-16T10:28:41;3.20;84.50
16134;DHT22;8172;45.018;5.972;2022-12-16T10:33:50;3.20;84.30
16134;DHT22;8172;45.018;5.972;2022-12-16T10:39:04;3.30;84.20
16134;DHT22;8172;45.018;5.972;2022-12-16T10:44:18;3.30;84.10
16134;DHT22;8172;45.018;5.972;2022-12-16T10:49:25;3.40;83.80
16134;DHT22;8172;45.018;5.972;2022-12-16T10:54:38;3.40;83.80
16134;DHT22;8172;45.018;5.972;2022-12-16T10:59:47;3.40;83.80
16134;DHT22;8172;45.018;5.972;2022-12-16T11:04:55;3.50;83.60
16134;DHT22;8172;45.018;5.972;2022-12-16T11:20:29;3.50;83.40
16134;DHT22;8172;45.018;5.972;2022-12-16T11:25:37;3.50;83.00
16134;DHT22;8172;45.018;5.972;2022-12-16T11:30:52;3.40;82.70
16134;DHT22;8172;45.018;5.972;2022-12-16T11:36:03;3.40;83.00
16134;DHT22;8172;45.018;5.972;2022-12-16T11:41:20;3.40;83.30
16134;DHT22;8172;45.018;5.972;2022-12-16T11:46:24;3.40;83.40
16134;DHT22;8172;45.018;5.972;2022-12-16T11:51:34;3.40;83.30
16134;DHT22;8172;45.018;5.972;2022-12-16T11:56:45;3.50;83.30
16134;DHT22;8172;45.018;5.972;2022-12-16T12:01:57;3.50;83.30
16134;DHT22;8172;45.018;5.972;2022-12-16T12:17:34;3.60;83.20
16134;DHT22;8172;45.018;5.972;2022-12-16T12:22:39;3.70;83.10
16134;DHT22;8172;45.018;5.972;2022-12-16T12:38:21;3.60;82.90
16134;DHT22;8172;45.018;5.972;2022-12-16T12:54:14;3.60;82.80
16134;DHT22;8172;45.018;5.972;2022-12-16T12:59:02;3.60;82.90
16134;DHT22;8172;45.018;5.972;2022-12-16T13:04:13;3.60;82.80
16134;DHT22;8172;45.018;5.972;2022-12-16T13:19:43;3.60;82.70
16134;DHT22;8172;45.018;5.972;2022-12-16T13:24:53;3.60;82.70
16134;DHT22;8172;45.018;5.972;2022-12-16T13:30:16;3.60;82.60
16134;DHT22;8172;45.018;5.972;2022-12-16T13:35:16;3.50;82.70
16134;DHT22;8172;45.018;5.972;2022-12-16T13:40:25;3.50;82.50
16134;DHT22;8172;45.018;5.972;2022-12-16T13:50:48;3.30;82.50
16134;DHT22;8172;45.018;5.972;2022-12-16T13:55:58;3.30;82.60
16134;DHT22;8172;45.018;5.972;2022-12-16T14:01:10;3.30;82.60
16134;DHT22;8172;45.018;5.972;2022-12-16T14:06:21;3.30;82.60
16134;DHT22;8172;45.018;5.972;2022-12-16T14:22:20;3.20;82.40
16134;DHT22;8172;45.018;5.972;2022-12-16T14:42:40;2.90;82.70
16134;DHT22;8172;45.018;5.972;2022-12-16T14:47:48;2.90;82.80
16134;DHT22;8172;45.018;5.972;2022-12-16T14:53:09;2.90;82.80
16134;DHT22;8172;45.018;5.972;2022-12-16T15:08:35;2.80;82.50
16134;DHT22;8172;45.018;5.972;2022-12-16T15:13:46;2.70;82.40
16134;DHT22;8172;45.018;5.972;2022-12-16T15:18:58;2.70;82.50
16134;DHT22;8172;45.018;5.972;2022-12-16T15:24:10;2.70;82.50
16134;DHT22;8172;45.018;5.972;2022-12-16T15:29:39;2.60;82.40
16134;DHT22;8172;45.018;5.972;2022-12-16T15:34:36;2.60;82.40
16134;DHT22;8172;45.018;5.972;2022-12-16T15:39:42;2.60;82.40
16134;DHT22;8172;45.018;5.972;2022-12-16T15:44:51;2.60;82.40
16134;DHT22;8172;45.018;5.972;2022-12-16T15:50:02;2.60;82.40
16134;DHT22;8172;45.018;5.972;2022-12-16T16:00:28;2.50;82.40
16134;DHT22;8172;45.018;5.972;2022-12-16T16:05:35;2.50;82.40
16134;DHT22;8172;45.018;5.972;2022-12-16T16:10:44;2.50;82.50
16134;DHT22;8172;45.018;5.972;2022-12-16T16:15:53;2.50;82.50
16134;DHT22;8172;45.018;5.972;2022-12-16T16:21:03;2.40;82.40
16134;DHT22;8172;45.018;5.972;2022-12-16T16:26:14;2.30;82.40
16134;DHT22;8172;45.018;5.972;2022-12-16T16:31:23;2.30;82.60
16134;DHT22;8172;45.018;5.972;2022-12-16T16:36:33;2.20;82.60
16134;DHT22;8172;45.018;5.972;2022-12-16T16:41:41;2.20;82.50
16134;DHT22;8172;45.018;5.972;2022-12-16T16:46:50;2.20;82.60
16134;DHT22;8172;45.018;5.972;2022-12-16T16:51:59;2.20;82.60
16134;DHT22;8172;45.018;5.972;2022-12-16T16:57:07;2.20;82.40
16134;DHT22;8172;45.018;5.972;2022-12-16T17:02:19;2.10;82.40
16134;DHT22;8172;45.018;5.972;2022-12-16T17:07:29;2.20;82.50
16134;DHT22;8172;45.018;5.972;2022-12-16T17:12:40;2.10;82.60
16134;DHT22;8172;45.018;5.972;2022-12-16T17:17:48;2.10;82.50
16134;DHT22;8172;45.018;5.972;2022-12-16T17:22:57;2.10;82.40
16134;DHT22;8172;45.018;5.972;2022-12-16T17:28:08;2.10;82.50
16134;DHT22;8172;45.018;5.972;2022-12-16T17:33:17;2.10;82.60
16134;DHT22;8172;45.018;5.972;2022-12-16T17:38:26;2.10;82.70
16134;DHT22;8172;45.018;5.972;2022-12-16T17:43:34;2.10;82.80
16134;DHT22;8172;45.018;5.972;2022-12-16T17:48:43;2.10;82.80
16134;DHT22;8172;45.018;5.972;2022-12-16T17:53:52;2.00;82.60
16134;DHT22;8172;45.018;5.972;2022-12-16T17:59:02;1.90;82.60
16134;DHT22;8172;45.018;5.972;2022-12-16T18:04:11;1.90;82.70
16134;DHT22;8172;45.018;5.972;2022-12-16T18:09:20;2.00;82.70
16134;DHT22;8172;45.018;5.972;2022-12-16T18:14:29;2.00;82.60
16134;DHT22;8172;45.018;5.972;2022-12-16T18:19:39;2.00;82.50
16134;DHT22;8172;45.018;5.972;2022-12-16T18:24:48;2.00;82.50
16134;DHT22;8172;45.018;5.972;2022-12-16T18:29:56;2.00;82.40
16134;DHT22;8172;45.018;5.972;2022-12-16T18:35:05;2.00;82.40
16134;DHT22;8172;45.018;5.972;2022-12-16T18:40:16;2.00;82.30
16134;DHT22;8172;45.018;5.972;2022-12-16T18:45:25;1.90;82.00
16134;DHT22;8172;45.018;5.972;2022-12-16T18:50:33;1.80;82.10
16134;DHT22;8172;45.018;5.972;2022-12-16T18:55:42;1.80;82.20
16134;DHT22;8172;45.018;5.972;2022-12-16T19:06:03;1.70;81.90
16134;DHT22;8172;45.018;5.972;2022-12-16T19:11:12;1.70;81.90
16134;DHT22;8172;45.018;5.972;2022-12-16T19:16:21;1.70;81.80
16134;DHT22;8172;45.018;5.972;2022-12-16T19:21:30;1.70;81.70
16134;DHT22;8172;45.018;5.972;2022-12-16T19:26:39;1.60;81.60
16134;DHT22;8172;45.018;5.972;2022-12-16T19:31:49;1.60;81.60
16134;DHT22;8172;45.018;5.972;2022-12-16T19:37:00;1.50;81.50
16134;DHT22;8172;45.018;5.972;2022-12-16T19:42:09;1.50;81.50
16134;DHT22;8172;45.018;5.972;2022-12-16T19:47:17;1.50;81.50
16134;DHT22;8172;45.018;5.972;2022-12-16T19:52:26;1.40;81.50
16134;DHT22;8172;45.018;5.972;2022-12-16T19:57:35;1.40;81.40
16134;DHT22;8172;45.018;5.972;2022-12-16T20:02:44;1.40;81.40
16134;DHT22;8172;45.018;5.972;2022-12-16T20:07:54;1.40;81.40
16134;DHT22;8172;45.018;5.972;2022-12-16T20:13:07;1.40;81.30
16134;DHT22;8172;45.018;5.972;2022-12-16T20:18:14;1.40;81.20
16134;DHT22;8172;45.018;5.972;2022-12-16T20:23:22;1.40;81.20
16134;DHT22;8172;45.018;5.972;2022-12-16T20:28:33;1.40;81.10
16134;DHT22;8172;45.018;5.972;2022-12-16T20:33:42;1.30;81.10
16134;DHT22;8172;45.018;5.972;2022-12-16T20:38:53;1.30;81.00
16134;DHT22;8172;45.018;5.972;2022-12-16T20:44:03;1.30;80.90
16134;DHT22;8172;45.018;5.972;2022-12-16T20:49:12;1.30;80.80
16134;DHT22;8172;45.018;5.972;2022-12-16T20:54:21;1.20;80.90
16134;DHT22;8172;45.018;5.972;2022-12-16T20:59:31;1.20;80.70
16134;DHT22;8172;45.018;5.972;2022-12-16T21:04:39;1.10;80.40
16134;DHT22;8172;45.018;5.972;2022-12-16T21:09:48;1.00;80.50
16134;DHT22;8172;45.018;5.972;2022-12-16T21:14:58;1.00;80.60
16134;DHT22;8172;45.018;5.972;2022-12-16T21:20:08;1.00;80.70
16134;DHT22;8172;45.018;5.972;2022-12-16T21:25:16;1.00;80.70
16134;DHT22;8172;45.018;5.972;2022-12-16T21:30:29;1.00;80.60
16134;DHT22;8172;45.018;5.972;2022-12-16T21:35:38;1.00;80.70
16134;DHT22;8172;45.018;5.972;2022-12-16T21:40:50;1.00;80.80
16134;DHT22;8172;45.018;5.972;2022-12-16T21:46:00;1.00;80.70
16134;DHT22;8172;45.018;5.972;2022-12-16T21:51:09;1.00;80.60
16134;DHT22;8172;45.018;5.972;2022-12-16T21:56:21;1.00;80.60
16134;DHT22;8172;45.018;5.972;2022-12-16T22:01:30;1.10;80.50
16134;DHT22;8172;45.018;5.972;2022-12-16T22:06:39;1.00;80.50
16134;DHT22;8172;45.018;5.972;2022-12-16T22:11:50;1.00;80.50
16134;DHT22;8172;45.018;5.972;2022-12-16T22:17:00;1.00;80.50
16134;DHT22;8172;45.018;5.972;2022-12-16T22:22:09;1.00;80.50
16134;DHT22;8172;45.018;5.972;2022-12-16T22:27:18;1.00;80.50
16134;DHT22;8172;45.018;5.972;2022-12-16T22:32:26;1.00;80.50
16134;DHT22;8172;45.018;5.972;2022-12-16T22:37:35;1.00;80.50
16134;DHT22;8172;45.018;5.972;2022-12-16T22:42:46;1.00;80.50
16134;DHT22;8172;45.018;5.972;2022-12-16T22:47:56;1.00;80.40
16134;DHT22;8172;45.018;5.972;2022-12-16T22:53:05;1.00;80.40
16134;DHT22;8172;45.018;5.972;2022-12-16T22:58:14;1.00;80.40
16134;DHT22;8172;45.018;5.972;2022-12-16T23:03:25;1.00;80.40
16134;DHT22;8172;45.018;5.972;2022-12-16T23:08:34;1.00;80.30
16134;DHT22;8172;45.018;5.972;2022-12-16T23:13:42;1.00;80.20
16134;DHT22;8172;45.018;5.972;2022-12-16T23:18:51;0.90;80.20
16134;DHT22;8172;45.018;5.972;2022-12-16T23:24:01;0.90;80.00
16134;DHT22;8172;45.018;5.972;2022-12-16T23:29:10;0.70;79.80
16134;DHT22;8172;45.018;5.972;2022-12-16T23:34:19;0.50;79.80
16134;DHT22;8172;45.018;5.972;2022-12-16T23:39:29;0.30;79.90
16134;DHT22;8172;45.018;5.972;2022-12-16T23:44:38;0.10;80.10
16134;DHT22;8172;45.018;5.972;2022-12-16T23:49:46;0.00;80.40
16134;DHT22;8172;45.018;5.972;2022-12-16T23:54:55;0.00;80.70
